createdAt,value
2017-10-21T00:00:31.915Z,3.97
2017-10-21T00:02:59.466Z,3.10
2017-10-21T00:05:38.459Z,2.90
2017-10-21T00:08:06.026Z,3.50
2017-10-21T00:10:33.537Z,7.90
2017-10-21T00:13:01.132Z,3.85
2017-10-21T00:15:28.670Z,4.50
2017-10-21T00:17:58.218Z,4.07
2017-10-21T00:20:26.374Z,3.70
2017-10-21T00:22:53.874Z,2.90
2017-10-21T00:25:24.313Z,9.70
2017-10-21T00:27:52.533Z,4.57
2017-10-21T00:30:20.052Z,3.10
2017-10-21T00:32:47.594Z,4.80
2017-10-21T00:35:15.113Z,6.32
2017-10-21T00:37:42.659Z,2.50
2017-10-21T00:40:10.168Z,5.73
2017-10-21T00:42:37.679Z,5.85
2017-10-21T00:45:06.996Z,5.37
2017-10-21T00:47:34.515Z,6.27
2017-10-21T00:50:02.789Z,2.40
2017-10-21T00:52:31.183Z,11.50
2017-10-21T00:54:58.684Z,5.32
2017-10-21T00:57:26.213Z,4.18
2017-10-21T00:59:53.749Z,7.10
2017-10-21T01:02:22.045Z,3.30
2017-10-21T01:04:50.071Z,5.50
2017-10-21T01:07:17.603Z,4.67
2017-10-21T01:09:45.183Z,7.10
2017-10-21T01:12:12.766Z,6.90
2017-10-21T01:14:41.107Z,6.22
2017-10-21T01:17:09.555Z,10.00
2017-10-21T01:19:37.064Z,5.80
2017-10-21T01:22:04.646Z,6.50
2017-10-21T01:24:32.220Z,4.93
2017-10-21T01:26:59.721Z,3.70
2017-10-21T01:29:27.608Z,3.93
2017-10-21T01:31:55.164Z,9.27
2017-10-21T01:34:22.905Z,3.00
2017-10-21T01:36:54.326Z,2.37
2017-10-21T01:39:21.848Z,8.98
2017-10-21T01:41:50.179Z,4.93
2017-10-21T01:44:18.221Z,1.80
2017-10-21T01:46:45.768Z,2.10
2017-10-21T01:49:15.294Z,7.40
2017-10-21T01:51:42.820Z,3.92
2017-10-21T01:54:14.508Z,3.80
2017-10-21T01:56:42.056Z,6.82
2017-10-21T01:59:10.323Z,3.87
2017-10-21T02:01:38.647Z,6.53
2017-10-21T02:04:06.195Z,5.20
2017-10-21T02:06:34.492Z,2.80
2017-10-21T02:09:02.276Z,6.28
2017-10-21T02:11:29.923Z,8.70
2017-10-21T02:13:57.463Z,2.07
2017-10-21T02:16:25.027Z,2.87
2017-10-21T02:18:52.576Z,8.23
2017-10-21T02:21:20.143Z,6.00
2017-10-21T02:23:47.663Z,4.73
2017-10-21T02:26:15.879Z,7.53
2017-10-21T02:28:43.444Z,3.87
2017-10-21T02:31:10.998Z,3.60
2017-10-21T02:33:38.516Z,7.57
2017-10-21T02:36:07.154Z,4.77
2017-10-21T02:38:35.239Z,3.97
2017-10-21T02:41:05.736Z,6.03
2017-10-21T02:43:33.242Z,4.57
2017-10-21T02:46:01.561Z,6.73
2017-10-21T02:48:29.104Z,6.57
2017-10-21T02:50:56.623Z,4.83
2017-10-21T02:53:30.199Z,6.93
2017-10-21T02:56:00.635Z,7.07
2017-10-21T02:58:28.128Z,8.20
2017-10-21T03:00:56.407Z,6.72
2017-10-21T03:03:23.959Z,4.30
2017-10-21T03:05:51.971Z,5.90
2017-10-21T03:08:20.189Z,12.98
2017-10-21T03:10:53.028Z,4.90
2017-10-21T03:13:21.406Z,3.00
2017-10-21T03:15:48.944Z,5.30
2017-10-21T03:18:17.515Z,2.83
2017-10-21T03:20:46.283Z,11.90
2017-10-21T03:23:13.820Z,5.03
2017-10-21T03:25:41.319Z,4.73
2017-10-21T03:28:08.859Z,10.30
2017-10-21T03:30:36.502Z,5.07
2017-10-21T03:33:05.367Z,5.03
2017-10-21T03:35:33.140Z,5.73
2017-10-21T03:38:00.776Z,3.17
2017-10-21T03:40:37.006Z,6.43
2017-10-21T03:43:06.231Z,4.07
2017-10-21T03:45:34.004Z,2.93
2017-10-21T03:48:01.505Z,6.07
2017-10-21T03:50:29.065Z,7.07
2017-10-21T03:52:56.675Z,4.78
2017-10-21T03:55:24.498Z,5.05
2017-10-21T03:57:52.033Z,7.82
2017-10-21T04:00:19.599Z,4.65
2017-10-21T04:02:47.141Z,4.47
2017-10-21T04:05:14.689Z,8.13
2017-10-21T04:07:42.224Z,8.63
2017-10-21T04:10:13.806Z,6.77
2017-10-21T04:12:41.572Z,4.47
2017-10-21T04:15:09.126Z,6.00
2017-10-21T04:17:36.636Z,4.50
2017-10-21T04:20:04.611Z,6.07
2017-10-21T04:22:34.175Z,5.17
2017-10-21T04:25:01.688Z,4.63
2017-10-21T04:27:30.032Z,4.50
2017-10-21T04:29:58.635Z,4.72
2017-10-21T04:32:26.145Z,6.73
2017-10-21T04:34:53.731Z,4.78
2017-10-21T04:37:21.291Z,5.80
2017-10-21T04:39:48.795Z,7.15
2017-10-21T04:42:17.916Z,4.90
2017-10-21T04:44:45.424Z,5.77
2017-10-21T04:47:13.752Z,4.10
2017-10-21T04:49:41.770Z,5.72
2017-10-21T04:52:09.589Z,7.80
2017-10-21T04:54:37.140Z,3.08
2017-10-21T04:57:04.687Z,4.60
2017-10-21T04:59:32.240Z,5.60
2017-10-21T05:02:01.438Z,12.37
2017-10-21T05:04:28.943Z,7.30
2017-10-21T05:06:59.330Z,6.05
2017-10-21T05:09:26.831Z,4.03
2017-10-21T05:11:58.658Z,7.50
2017-10-21T05:14:26.173Z,4.97
2017-10-21T05:16:53.687Z,11.50
2017-10-21T05:19:21.257Z,4.77
2017-10-21T05:21:48.806Z,10.60
2017-10-21T05:24:16.376Z,8.60
2017-10-21T05:26:48.931Z,6.00
2017-10-21T05:29:16.523Z,6.00
2017-10-21T05:31:44.087Z,4.07
2017-10-21T05:34:11.621Z,7.53
2017-10-21T05:36:40.108Z,8.10
2017-10-21T05:39:07.641Z,5.63
2017-10-21T05:41:35.319Z,6.00
2017-10-21T05:44:02.934Z,5.15
2017-10-21T05:46:30.475Z,8.00
2017-10-21T05:48:57.990Z,15.43
2017-10-21T05:51:26.335Z,6.53
2017-10-21T05:53:54.003Z,2.90
2017-10-21T05:56:24.582Z,7.20
2017-10-21T05:58:52.353Z,6.70
2017-10-21T06:01:21.121Z,12.27
2017-10-21T06:03:49.087Z,5.62
2017-10-21T06:06:17.175Z,14.70
2017-10-21T06:08:45.360Z,4.17
2017-10-21T06:11:13.780Z,7.12
2017-10-21T06:13:41.496Z,9.10
2017-10-21T06:16:09.004Z,7.70
2017-10-21T06:18:36.532Z,6.95
2017-10-21T06:21:04.071Z,7.83
2017-10-21T06:23:31.659Z,6.70
2017-10-21T06:25:59.165Z,12.50
2017-10-21T06:28:27.756Z,8.35
2017-10-21T06:30:55.367Z,4.83
2017-10-21T06:33:22.878Z,6.25
2017-10-21T06:35:50.413Z,4.20
2017-10-21T06:38:17.991Z,7.17
2017-10-21T06:40:47.120Z,6.55
2017-10-21T06:43:15.517Z,6.50
2017-10-21T06:45:43.064Z,5.57
2017-10-21T06:48:11.955Z,7.20
2017-10-21T06:50:40.285Z,7.67
2017-10-21T06:53:07.811Z,10.30
2017-10-21T06:55:35.936Z,4.47
2017-10-21T06:58:07.896Z,7.30
2017-10-21T07:00:36.650Z,6.10
2017-10-21T07:03:04.209Z,5.90
2017-10-21T07:05:32.148Z,9.05
2017-10-21T07:07:59.682Z,10.50
2017-10-21T07:10:27.757Z,11.10
2017-10-21T07:12:56.835Z,8.18
2017-10-21T07:15:24.381Z,6.32
2017-10-21T07:17:51.915Z,7.90
2017-10-21T07:20:20.136Z,10.10
2017-10-21T07:22:48.052Z,6.87
2017-10-21T07:25:16.331Z,8.07
2017-10-21T07:27:54.879Z,6.70
2017-10-21T07:30:22.473Z,7.83
2017-10-21T07:32:50.067Z,7.00
2017-10-21T07:35:17.644Z,8.38
2017-10-21T07:37:46.091Z,6.22
2017-10-21T07:40:14.612Z,8.30
2017-10-21T07:42:42.487Z,10.03
2017-10-21T07:45:10.786Z,6.02
2017-10-21T07:47:38.317Z,10.30
2017-10-21T07:50:05.864Z,10.60
2017-10-21T07:52:33.696Z,12.27
2017-10-21T07:55:01.273Z,7.60
2017-10-21T07:57:30.603Z,10.97
2017-10-21T07:59:58.117Z,10.90
2017-10-21T08:02:26.512Z,5.80
2017-10-21T08:04:54.344Z,11.80
2017-10-21T08:07:21.851Z,11.83
2017-10-21T08:09:49.395Z,9.20
2017-10-21T08:12:17.664Z,14.80
2017-10-21T08:14:49.901Z,19.77
2017-10-21T08:17:17.410Z,8.75
2017-10-21T08:19:45.097Z,10.23
2017-10-21T08:22:12.663Z,8.50
2017-10-21T08:24:40.199Z,10.53
2017-10-21T08:27:08.525Z,9.13
2017-10-21T08:29:36.024Z,16.30
2017-10-21T08:32:03.565Z,15.38
2017-10-21T08:34:31.860Z,10.88
2017-10-21T08:36:59.413Z,7.90
2017-10-21T08:39:28.955Z,9.85
2017-10-21T08:41:58.144Z,9.77
2017-10-21T08:44:29.404Z,10.17
2017-10-21T08:46:57.434Z,9.15
2017-10-21T08:49:24.949Z,12.90
2017-10-21T08:51:52.508Z,7.83
2017-10-21T08:54:20.133Z,10.73
2017-10-21T08:56:48.214Z,9.20
2017-10-21T08:59:19.394Z,9.33
2017-10-21T09:01:47.535Z,13.15
2017-10-21T09:04:15.384Z,12.13
2017-10-21T09:06:43.375Z,14.50
2017-10-21T09:09:11.008Z,6.30
2017-10-21T09:11:38.704Z,9.30
2017-10-21T09:14:07.058Z,6.80
2017-10-21T09:16:34.656Z,10.32
2017-10-21T09:19:02.164Z,7.90
2017-10-21T09:21:29.723Z,9.40
2017-10-21T09:23:57.272Z,11.03
2017-10-21T09:26:25.580Z,7.03
2017-10-21T09:28:53.119Z,8.07
2017-10-21T09:31:20.647Z,6.93
2017-10-21T09:33:48.195Z,13.53
2017-10-21T09:36:15.783Z,4.37
2017-10-21T09:38:43.320Z,7.05
2017-10-21T09:41:11.640Z,7.85
2017-10-21T09:43:39.502Z,9.10
2017-10-21T09:46:07.807Z,7.67
2017-10-21T09:48:35.376Z,7.40
2017-10-21T09:51:04.049Z,6.68
2017-10-21T09:53:31.552Z,6.83
2017-10-21T09:55:59.092Z,6.20
2017-10-21T09:58:26.622Z,8.50
2017-10-21T10:00:54.164Z,6.95
2017-10-21T10:03:21.695Z,9.00
2017-10-21T10:05:49.988Z,8.17
2017-10-21T10:08:18.890Z,8.57
2017-10-21T10:10:46.495Z,8.03
2017-10-21T10:13:14.649Z,12.23
2017-10-21T10:15:45.780Z,8.02
2017-10-21T10:18:13.278Z,6.73
2017-10-21T10:20:40.847Z,6.05
2017-10-21T10:23:08.350Z,11.65
2017-10-21T10:25:36.233Z,7.27
2017-10-21T10:28:03.805Z,11.65
2017-10-21T10:30:31.771Z,8.52
2017-10-21T10:32:59.274Z,8.88
2017-10-21T10:35:26.822Z,7.30
2017-10-21T10:37:54.365Z,7.33
2017-10-21T10:40:21.901Z,8.13
2017-10-21T10:42:50.341Z,8.03
2017-10-21T10:45:17.913Z,8.60
2017-10-21T10:47:49.889Z,8.82
2017-10-21T10:50:17.404Z,9.32
2017-10-21T10:52:46.658Z,14.18
2017-10-21T10:55:14.204Z,7.40
2017-10-21T10:57:41.715Z,5.93
2017-10-21T11:00:10.972Z,10.10
2017-10-21T11:02:38.467Z,8.15
2017-10-21T11:05:06.039Z,9.50
2017-10-21T11:07:33.575Z,10.53
2017-10-21T11:10:01.070Z,9.60
2017-10-21T11:12:30.349Z,7.40
2017-10-21T11:14:58.069Z,8.38
2017-10-21T11:17:25.644Z,5.63
2017-10-21T11:19:53.184Z,8.17
2017-10-21T11:22:20.786Z,11.97
2017-10-21T11:24:49.613Z,7.97
2017-10-21T11:27:17.186Z,15.07
2017-10-21T11:29:44.715Z,10.23
2017-10-21T11:32:25.722Z,6.97
2017-10-21T11:34:53.300Z,9.55
2017-10-21T11:37:20.803Z,11.80
2017-10-21T11:39:48.324Z,12.77
2017-10-21T11:42:15.882Z,12.18
2017-10-21T11:44:44.043Z,7.93
2017-10-21T11:47:14.975Z,10.70
2017-10-21T11:49:43.320Z,7.45
2017-10-21T11:52:10.894Z,11.97
2017-10-21T11:54:38.437Z,7.87
2017-10-21T11:57:05.986Z,8.30
2017-10-21T11:59:34.037Z,9.07
2017-10-21T12:02:01.657Z,9.10
2017-10-21T12:04:29.163Z,9.33
2017-10-21T12:06:56.708Z,9.70
2017-10-21T12:09:24.243Z,6.30
2017-10-21T12:11:51.838Z,16.20
2017-10-21T12:14:19.396Z,12.00
2017-10-21T12:16:47.440Z,10.02
2017-10-21T12:19:15.771Z,8.68
2017-10-21T12:21:43.305Z,10.10
2017-10-21T12:24:10.846Z,9.87
2017-10-21T12:26:39.195Z,8.50
2017-10-21T12:29:06.799Z,6.70
2017-10-21T12:31:34.376Z,11.77
2017-10-21T12:34:01.886Z,7.07
2017-10-21T12:36:29.407Z,5.17
2017-10-21T12:38:57.731Z,9.70
2017-10-21T12:41:25.830Z,7.32
2017-10-21T12:43:53.371Z,5.23
2017-10-21T12:46:20.881Z,8.40
2017-10-21T12:48:49.037Z,9.13
2017-10-21T12:51:16.541Z,8.70
2017-10-21T12:53:45.796Z,12.10
2017-10-21T12:56:14.465Z,6.93
2017-10-21T12:58:42.016Z,7.87
2017-10-21T13:01:10.313Z,5.83
2017-10-21T13:03:37.807Z,4.00
2017-10-21T13:06:05.349Z,6.10
2017-10-21T13:08:32.863Z,9.63
2017-10-21T13:11:00.390Z,4.23
2017-10-21T13:13:27.890Z,5.80
2017-10-21T13:15:55.427Z,5.73
2017-10-21T13:18:32.384Z,3.97
2017-10-21T13:20:59.955Z,4.93
2017-10-21T13:23:27.467Z,3.70
2017-10-21T13:25:55.779Z,3.17
2017-10-21T13:28:23.343Z,3.00
2017-10-21T13:30:50.859Z,4.40
2017-10-21T13:33:19.078Z,4.85
2017-10-21T13:35:46.634Z,4.73
2017-10-21T13:38:15.368Z,3.40
2017-10-21T13:40:44.427Z,4.43
2017-10-21T13:43:11.955Z,7.97
2017-10-21T13:45:39.479Z,6.50
2017-10-21T13:48:07.059Z,3.93
2017-10-21T13:50:35.071Z,3.30
2017-10-21T13:53:03.723Z,4.70
2017-10-21T13:55:31.284Z,5.37
2017-10-21T13:57:58.793Z,3.97
2017-10-21T14:00:26.351Z,5.37
2017-10-21T14:02:53.947Z,3.47
2017-10-21T14:05:22.039Z,3.40
2017-10-21T14:07:49.572Z,3.77
2017-10-21T14:10:17.889Z,2.70
2017-10-21T14:12:45.441Z,3.20
2017-10-21T14:15:12.972Z,5.80
2017-10-21T14:17:40.959Z,3.90
2017-10-21T14:20:08.470Z,5.87
2017-10-21T14:22:35.972Z,4.00
2017-10-21T14:25:03.867Z,2.67
2017-10-21T14:27:31.424Z,3.80
2017-10-21T14:29:59.006Z,7.73
2017-10-21T14:32:26.543Z,2.87
2017-10-21T14:34:59.072Z,4.73
2017-10-21T14:37:26.570Z,3.93
2017-10-21T14:39:54.280Z,3.43
2017-10-21T14:42:21.788Z,3.90
2017-10-21T14:44:49.927Z,4.22
2017-10-21T14:47:17.498Z,3.97
2017-10-21T14:49:45.042Z,5.03
2017-10-21T14:52:14.410Z,5.23
2017-10-21T14:54:41.927Z,4.72
2017-10-21T14:57:09.896Z,4.20
2017-10-21T14:59:37.489Z,7.60
2017-10-21T15:02:05.053Z,5.63
2017-10-21T15:04:33.013Z,6.50
2017-10-21T15:07:00.938Z,7.03
2017-10-21T15:09:28.444Z,9.70
2017-10-21T15:11:56.971Z,4.93
2017-10-21T15:14:25.286Z,7.20
2017-10-21T15:16:52.784Z,5.40
2017-10-21T15:19:20.371Z,10.70
2017-10-21T15:21:47.912Z,6.20
2017-10-21T15:24:15.433Z,6.17
2017-10-21T15:26:43.020Z,5.23
2017-10-21T15:29:10.574Z,10.63
2017-10-21T15:31:38.164Z,9.35
2017-10-21T15:34:07.367Z,7.80
2017-10-21T15:36:34.875Z,5.90
2017-10-21T15:39:02.776Z,13.27
2017-10-21T15:41:31.227Z,5.10
2017-10-21T15:43:59.530Z,8.98
2017-10-21T15:46:27.149Z,8.80
2017-10-21T15:48:54.669Z,14.00
2017-10-21T15:51:22.971Z,6.70
2017-10-21T15:53:51.391Z,6.40
2017-10-21T15:56:18.963Z,7.90
2017-10-21T15:58:47.374Z,6.60
2017-10-21T16:01:15.725Z,6.10
2017-10-21T16:03:43.597Z,7.13
2017-10-21T16:06:15.019Z,6.77
2017-10-21T16:08:43.574Z,7.75
2017-10-21T16:11:11.118Z,8.30
2017-10-21T16:13:38.675Z,7.07
2017-10-21T16:16:06.250Z,6.47
2017-10-21T16:18:33.902Z,11.50
2017-10-21T16:21:01.546Z,8.13
2017-10-21T16:23:30.361Z,11.12
2017-10-21T16:25:57.989Z,9.73
2017-10-21T16:28:25.621Z,11.03
2017-10-21T16:30:54.078Z,7.80
2017-10-21T16:33:22.402Z,9.30
2017-10-21T16:35:50.190Z,13.03
2017-10-21T16:38:17.760Z,6.40
2017-10-21T16:40:46.271Z,9.40
2017-10-21T16:43:13.803Z,9.00
2017-10-21T16:45:41.329Z,12.50
2017-10-21T16:48:09.206Z,12.18
2017-10-21T16:50:36.796Z,11.50
2017-10-21T16:53:04.309Z,7.70
2017-10-21T16:55:32.836Z,8.55
2017-10-21T16:58:00.357Z,5.43
2017-10-21T17:00:28.640Z,10.32
2017-10-21T17:02:57.001Z,7.37
2017-10-21T17:05:24.525Z,11.73
2017-10-21T17:07:52.066Z,12.73
2017-10-21T17:10:20.320Z,11.73
2017-10-21T17:12:47.838Z,8.33
2017-10-21T17:15:17.220Z,13.13
2017-10-21T17:17:44.720Z,12.00
2017-10-21T17:20:12.267Z,14.37
2017-10-21T17:22:43.958Z,10.27
2017-10-21T17:25:11.823Z,11.07
2017-10-21T17:27:39.394Z,10.00
2017-10-21T17:30:06.975Z,16.57
2017-10-21T17:32:34.562Z,9.53
2017-10-21T17:35:02.074Z,14.83
2017-10-21T17:37:31.536Z,8.70
2017-10-21T17:39:59.082Z,11.83
2017-10-21T17:42:26.601Z,14.70
2017-10-21T17:44:55.078Z,10.98
2017-10-21T17:47:22.626Z,16.83
2017-10-21T17:49:50.198Z,9.95
2017-10-21T17:52:18.475Z,13.40
2017-10-21T17:54:46.036Z,11.93
2017-10-21T17:57:14.933Z,11.45
2017-10-21T17:59:42.506Z,11.95
2017-10-21T18:02:10.078Z,13.90
2017-10-21T18:04:37.614Z,14.77
2017-10-21T18:07:05.199Z,14.27
2017-10-21T18:09:33.662Z,14.63
2017-10-21T18:12:01.966Z,19.13
2017-10-21T18:14:31.026Z,15.40
2017-10-21T18:16:58.640Z,12.47
2017-10-21T18:19:26.911Z,16.80
2017-10-21T18:21:54.423Z,14.38
2017-10-21T18:24:25.655Z,18.97
2017-10-21T18:26:53.572Z,13.53
2017-10-21T18:29:21.451Z,11.83
2017-10-21T18:31:49.150Z,16.37
2017-10-21T18:34:16.944Z,15.32
2017-10-21T18:36:45.724Z,13.97
2017-10-21T18:39:13.247Z,14.57
2017-10-21T18:41:44.720Z,19.47
2017-10-21T18:44:12.228Z,14.93
2017-10-21T18:46:40.285Z,18.77
2017-10-21T18:49:08.060Z,12.93
2017-10-21T18:51:35.569Z,15.90
2017-10-21T18:54:03.075Z,11.90
2017-10-21T18:56:30.716Z,18.43
2017-10-21T18:58:58.245Z,18.00
2017-10-21T19:01:26.392Z,15.18
2017-10-21T19:03:54.705Z,17.67
2017-10-21T19:06:22.225Z,17.87
2017-10-21T19:08:49.920Z,14.40
2017-10-21T19:11:17.490Z,17.33
2017-10-21T19:13:45.691Z,13.48
2017-10-21T19:16:13.374Z,18.50
2017-10-21T19:18:41.766Z,12.50
2017-10-21T19:21:10.855Z,11.15
2017-10-21T19:23:38.756Z,12.50
2017-10-21T19:26:06.648Z,11.93
2017-10-21T19:28:35.048Z,11.75
2017-10-21T19:31:02.968Z,10.40
2017-10-21T19:33:31.040Z,9.82
2017-10-21T19:35:59.783Z,11.12
2017-10-21T19:38:27.407Z,10.00
2017-10-21T19:40:54.935Z,6.90
2017-10-21T19:43:22.483Z,2.95
2017-10-21T19:45:50.602Z,3.10
2017-10-21T19:48:19.112Z,4.70
2017-10-21T19:50:46.778Z,3.43
2017-10-21T19:53:14.685Z,6.18
2017-10-21T19:55:45.595Z,3.60
2017-10-21T19:58:13.457Z,4.98
2017-10-21T20:00:41.065Z,3.77
2017-10-21T20:03:08.584Z,5.90
2017-10-21T20:05:36.877Z,5.00
2017-10-21T20:08:04.384Z,2.10
2017-10-21T20:10:36.926Z,2.50
2017-10-21T20:13:04.455Z,1.47
2017-10-21T20:15:33.655Z,1.53
2017-10-21T20:18:01.192Z,3.83
2017-10-21T20:20:29.503Z,1.30
2017-10-21T20:22:57.863Z,1.52
2017-10-21T20:25:25.439Z,1.10
2017-10-21T20:27:52.962Z,5.43
2017-10-21T20:30:20.544Z,2.73
2017-10-21T20:32:48.048Z,6.97
2017-10-21T20:35:15.610Z,3.73
2017-10-21T20:37:44.006Z,1.75
2017-10-21T20:40:11.575Z,5.63
2017-10-21T20:42:39.365Z,3.70
2017-10-21T20:45:08.351Z,9.98
2017-10-21T20:47:37.324Z,3.40
2017-10-21T20:50:04.867Z,6.50
2017-10-21T20:52:32.367Z,9.57
2017-10-21T20:55:01.594Z,2.85
2017-10-21T20:57:29.219Z,2.47
2017-10-21T20:59:56.776Z,4.93
2017-10-21T21:02:26.054Z,4.20
2017-10-21T21:04:53.602Z,3.10
2017-10-21T21:07:21.152Z,3.50
2017-10-21T21:09:48.693Z,5.03
2017-10-21T21:12:16.213Z,4.55
2017-10-21T21:14:44.667Z,4.78
2017-10-21T21:17:12.185Z,3.07
2017-10-21T21:19:39.742Z,4.18
2017-10-21T21:22:07.254Z,3.57
2017-10-21T21:24:36.313Z,4.07
2017-10-21T21:27:11.494Z,2.60
2017-10-21T21:29:40.732Z,3.20
2017-10-21T21:32:08.268Z,2.33
2017-10-21T21:34:37.798Z,6.50
2017-10-21T21:37:05.424Z,6.82
2017-10-21T21:39:32.963Z,4.12
2017-10-21T21:42:00.468Z,3.60
2017-10-21T21:44:27.994Z,3.43
2017-10-21T21:46:56.320Z,12.07
2017-10-21T21:49:24.085Z,3.22
2017-10-21T21:51:51.615Z,5.33
2017-10-21T21:54:19.932Z,3.70
2017-10-21T21:56:48.444Z,3.37
2017-10-21T21:59:15.959Z,5.30
2017-10-21T22:01:43.622Z,5.10
2017-10-21T22:04:11.177Z,3.40
2017-10-21T22:06:38.678Z,4.33
2017-10-21T22:09:06.202Z,5.70
2017-10-21T22:11:33.742Z,8.27
2017-10-21T22:14:03.038Z,6.25
2017-10-21T22:16:30.580Z,6.20
2017-10-21T22:18:58.092Z,6.37
2017-10-21T22:21:25.654Z,4.25
2017-10-21T22:23:53.160Z,7.05
2017-10-21T22:26:21.223Z,6.62
2017-10-21T22:28:49.499Z,4.90
2017-10-21T22:31:17.035Z,7.40
2017-10-21T22:33:44.595Z,4.85
2017-10-21T22:36:12.480Z,5.32
2017-10-21T22:38:40.785Z,3.05
2017-10-21T22:41:08.931Z,6.17
2017-10-21T22:43:41.038Z,6.00
2017-10-21T22:46:08.598Z,8.38
2017-10-21T22:48:36.101Z,3.37
2017-10-21T22:51:03.607Z,2.43
2017-10-21T22:53:31.165Z,5.00
2017-10-21T22:55:58.897Z,8.00
2017-10-21T22:58:26.598Z,2.30
2017-10-21T23:00:54.543Z,3.58
2017-10-21T23:03:22.875Z,2.67
2017-10-21T23:05:50.392Z,6.43
2017-10-21T23:08:18.855Z,6.67
2017-10-21T23:10:46.392Z,3.28
2017-10-21T23:13:13.947Z,3.53
2017-10-21T23:15:41.483Z,3.73
2017-10-21T23:18:09.034Z,3.45
2017-10-21T23:20:36.572Z,8.00
2017-10-21T23:23:04.116Z,8.90
2017-10-21T23:25:31.795Z,6.30
2017-10-21T23:27:59.338Z,6.93
2017-10-21T23:30:28.218Z,6.53
2017-10-21T23:32:55.797Z,6.37
2017-10-21T23:35:23.318Z,10.97
2017-10-21T23:37:51.746Z,10.70
2017-10-21T23:40:19.298Z,3.83
2017-10-21T23:42:46.810Z,5.80
2017-10-21T23:45:14.367Z,5.27
2017-10-21T23:47:42.680Z,3.62
2017-10-21T23:50:11.176Z,7.10
2017-10-21T23:52:40.306Z,7.27
2017-10-21T23:55:07.804Z,6.55
2017-10-21T23:57:36.557Z,8.00
